Aérodrome :
LOGIN :

S'inscrire | Disclaimer

   EN    FR    IT 

 










Légende :    VFR   VFR Marginal   IFR   IFR Intensif   IFR Très Intensif
Visi : 
Plafond : 
>= 8 km
>= 3000ft
5 à 8 km
1000 à 3000 ft
1500m à 5 km
500 à 1000 ft
800 à 1500m
200 à 500 ft
< 800m
< 200 ft
Symboles :   Orages  Brouillard  Fortes neiges  Fortes précipitations  Vent > 20 kt
SIGMETs :   Divers  Orages  Givrage  Turbulence  Onde Orograph.  Cendres Volcan.






- Altitude de l'aérodrome : 388 ft
- Code IATA : QYR


LFQB - Troyes Barberey

DERNIER METAR :
  • 301200Z AUTO 25017KT 8000 SCT008 BKN018 BKN023 05/03 Q1025

METARs EXPIRÉS :
  • 301130Z AUTO 25015KT 7000 BKN010 BKN016 OVC026 05/03 Q1026
  • 301100Z AUTO 25017KT 4700 BR FEW008 BKN019 OVC026 04/03 Q1026
  • 301030Z AUTO 24013KT 3600 BR BKN008 OVC023 04/03 Q1026
  • 301000Z AUTO 24010KT 7000 BKN010 OVC032 04/02 Q1027
  • 300930Z AUTO 24012KT 9000 FEW009 OVC031 03/02 Q1026
  • 300900Z AUTO 22012KT 7000 FEW012 BKN036 OVC046 03/02 Q1026

TAF N/A



MET'MAP, la Météo Aéronautique d'un coup d'oeil ! - Copyright ORBIFLY Décembre 2007 - Disclaimer

ORBIFLY MET'MAP TEAM :

Programmation & Développement : Alexandra Zaïnal
Sur une idée originale de : Baudouin d'Aumeries
Soutien technique & logistique : Manuel Goepfert
Assistance : Marc-Olivier Méhu




SOURCES & CREDITS :

   NOAA